createdAt,value
2023-05-21T00:00:10.749Z,13.20
2023-05-21T00:02:39.850Z,13.00
2023-05-21T00:05:13.771Z,13.10
2023-05-21T00:07:42.002Z,13.00
2023-05-21T00:10:09.800Z,12.90
2023-05-21T00:12:37.587Z,13.00
2023-05-21T00:15:05.428Z,13.00
2023-05-21T00:17:32.826Z,13.00
2023-05-21T00:20:02.913Z,13.10
2023-05-21T00:22:30.051Z,13.00
2023-05-21T00:24:57.310Z,12.90
2023-05-21T00:27:24.698Z,12.90
2023-05-21T00:29:52.396Z,13.00
2023-05-21T00:32:19.506Z,12.90
2023-05-21T00:34:47.525Z,13.00
2023-05-21T00:37:15.539Z,12.90
2023-05-21T00:39:43.360Z,12.70
2023-05-21T00:42:10.816Z,12.90
2023-05-21T00:44:38.840Z,13.10
2023-05-21T00:47:06.757Z,13.00
2023-05-21T00:49:35.144Z,12.80
2023-05-21T00:52:02.491Z,13.10
2023-05-21T00:54:30.996Z,13.00
2023-05-21T00:57:01.262Z,13.00
2023-05-21T00:59:29.072Z,12.70
2023-05-21T01:01:57.183Z,12.70
2023-05-21T01:04:27.698Z,12.80
2023-05-21T01:06:56.628Z,12.90
2023-05-21T01:09:36.022Z,13.00
2023-05-21T01:12:04.486Z,12.90
2023-05-21T01:14:33.021Z,13.00
2023-05-21T01:17:02.379Z,12.80
2023-05-21T01:19:30.200Z,12.90
2023-05-21T01:22:02.126Z,12.90
2023-05-21T01:24:29.332Z,13.10
2023-05-21T01:26:56.685Z,13.00
2023-05-21T01:29:24.487Z,13.20
2023-05-21T01:32:19.849Z,13.00
2023-05-21T01:35:13.343Z,12.80
2023-05-21T01:37:49.929Z,13.00
2023-05-21T01:40:26.067Z,12.90
2023-05-21T01:42:53.572Z,13.10
2023-05-21T01:45:22.706Z,13.00
2023-05-21T01:47:51.934Z,12.90
2023-05-21T01:50:19.593Z,13.10
2023-05-21T01:52:54.499Z,13.00
2023-05-21T01:55:25.525Z,13.00
2023-05-21T01:57:53.879Z,12.90
2023-05-21T02:00:22.673Z,12.80
2023-05-21T02:02:50.818Z,12.90
2023-05-21T02:05:18.605Z,12.60
2023-05-21T02:07:47.661Z,12.40
2023-05-21T02:10:15.042Z,12.70
2023-05-21T02:12:43.452Z,12.40
2023-05-21T02:15:11.202Z,12.60
2023-05-21T02:17:39.027Z,12.50
2023-05-21T02:20:14.012Z,12.60
2023-05-21T02:22:43.310Z,12.40
2023-05-21T02:25:14.330Z,12.20
2023-05-21T02:27:43.146Z,12.20
2023-05-21T02:30:11.901Z,12.30
2023-05-21T02:32:45.537Z,12.10
2023-05-21T02:35:15.247Z,12.20
2023-05-21T02:37:44.335Z,12.30
2023-05-21T02:40:12.121Z,12.00
2023-05-21T02:42:40.560Z,12.10
2023-05-21T02:45:14.036Z,11.80
2023-05-21T02:47:41.623Z,12.10
2023-05-21T02:50:09.839Z,12.20
2023-05-21T02:52:37.021Z,12.00
2023-05-21T02:55:04.840Z,11.90
2023-05-21T02:57:32.213Z,12.10
2023-05-21T03:00:04.032Z,11.90
2023-05-21T03:02:31.653Z,11.80
2023-05-21T03:05:00.845Z,11.80
2023-05-21T03:07:28.258Z,11.70
2023-05-21T03:09:56.053Z,11.70
2023-05-21T03:12:23.288Z,11.70
2023-05-21T03:14:51.558Z,11.80
2023-05-21T03:17:19.288Z,11.70
2023-05-21T03:19:47.342Z,11.90
2023-05-21T03:22:14.634Z,11.60
2023-05-21T03:24:42.497Z,11.80
2023-05-21T03:27:10.263Z,11.90
2023-05-21T03:29:40.158Z,11.60
2023-05-21T03:32:11.028Z,11.80
2023-05-21T03:34:41.383Z,11.60
2023-05-21T03:37:08.913Z,11.80
2023-05-21T03:39:39.228Z,11.70
2023-05-21T03:42:11.349Z,11.70
2023-05-21T03:44:45.276Z,11.60
2023-05-21T03:47:12.451Z,11.40
2023-05-21T03:49:40.258Z,11.70
2023-05-21T03:52:10.191Z,11.50
2023-05-21T03:54:37.680Z,11.30
2023-05-21T03:57:05.181Z,11.70
2023-05-21T03:59:33.021Z,11.60
2023-05-21T04:02:00.857Z,11.50
2023-05-21T04:04:29.912Z,11.20
2023-05-21T04:06:57.728Z,11.50
2023-05-21T04:09:25.278Z,11.20
2023-05-21T04:11:52.882Z,11.40
2023-05-21T04:14:20.661Z,11.40
2023-05-21T04:16:49.388Z,11.40
2023-05-21T04:19:16.834Z,11.40
2023-05-21T04:21:45.232Z,11.50
2023-05-21T04:24:14.973Z,11.10
2023-05-21T04:26:42.362Z,11.50
2023-05-21T04:29:10.216Z,11.30
2023-05-21T04:31:37.552Z,11.10
2023-05-21T04:34:05.428Z,11.60
2023-05-21T04:36:34.063Z,11.40
2023-05-21T04:39:01.820Z,11.40
2023-05-21T04:41:29.145Z,11.10
2023-05-21T04:43:56.376Z,11.30
2023-05-21T04:46:27.057Z,11.60
2023-05-21T04:48:58.403Z,11.20
2023-05-21T04:51:46.436Z,11.60
2023-05-21T04:54:16.535Z,11.70
2023-05-21T04:56:58.433Z,11.70
2023-05-21T04:59:29.929Z,11.60
2023-05-21T05:04:34.263Z,11.60
2023-05-21T05:07:01.942Z,11.70
2023-05-21T05:09:30.587Z,11.80
2023-05-21T05:11:58.060Z,12.10
2023-05-21T05:14:25.660Z,11.90
2023-05-21T05:16:52.917Z,12.30
2023-05-21T05:19:20.810Z,11.90
2023-05-21T05:21:48.064Z,12.30
2023-05-21T05:24:16.445Z,12.30
2023-05-21T05:26:47.049Z,12.60
2023-05-21T05:29:16.600Z,12.40
2023-05-21T05:31:43.672Z,12.50
2023-05-21T05:34:10.951Z,12.50
2023-05-21T05:36:38.558Z,12.50
2023-05-21T05:39:05.923Z,12.70
2023-05-21T05:41:33.576Z,12.60
2023-05-21T05:44:01.385Z,12.70
2023-05-21T05:46:29.602Z,12.90
2023-05-21T05:48:57.280Z,13.00
2023-05-21T05:51:24.778Z,13.10
2023-05-21T05:53:52.165Z,12.90
2023-05-21T05:56:19.736Z,13.40
2023-05-21T05:58:46.972Z,12.90
2023-05-21T06:01:14.371Z,12.90
2023-05-21T06:03:41.593Z,13.20
2023-05-21T06:06:09.173Z,13.40
2023-05-21T06:08:38.076Z,13.30
2023-05-21T06:11:05.884Z,13.30
2023-05-21T06:13:34.006Z,13.60
2023-05-21T06:16:01.762Z,13.50
2023-05-21T06:18:29.222Z,13.50
2023-05-21T06:20:56.347Z,13.50
2023-05-21T06:23:23.454Z,13.70
2023-05-21T06:25:50.853Z,13.50
2023-05-21T06:28:18.132Z,14.00
2023-05-21T06:30:45.743Z,13.90
2023-05-21T06:33:13.467Z,13.80
2023-05-21T06:35:41.388Z,14.00
2023-05-21T06:38:08.959Z,14.00
2023-05-21T06:40:36.531Z,14.00
2023-05-21T06:43:08.359Z,14.50
2023-05-21T06:45:36.022Z,14.20
2023-05-21T06:48:04.095Z,14.70
2023-05-21T06:50:31.817Z,14.80
2023-05-21T06:52:59.341Z,14.70
2023-05-21T06:55:27.148Z,15.00
2023-05-21T06:57:54.759Z,14.80
2023-05-21T07:00:22.632Z,15.00
2023-05-21T07:02:50.287Z,14.90
2023-05-21T07:05:18.313Z,15.30
2023-05-21T07:07:46.137Z,15.40
2023-05-21T07:10:14.300Z,15.60
2023-05-21T07:12:44.863Z,15.50
2023-05-21T07:15:12.457Z,16.00
2023-05-21T07:17:42.476Z,15.90
2023-05-21T07:20:13.263Z,16.10
2023-05-21T07:22:41.514Z,16.10
2023-05-21T07:25:09.579Z,16.40
2023-05-21T07:27:37.139Z,16.40
2023-05-21T07:30:06.441Z,16.40
2023-05-21T07:32:46.256Z,16.40
2023-05-21T07:35:16.735Z,16.60
2023-05-21T07:37:44.714Z,16.60
2023-05-21T07:40:13.058Z,16.90
2023-05-21T07:42:40.601Z,17.10
2023-05-21T07:45:08.379Z,17.10
2023-05-21T07:47:36.109Z,17.20
2023-05-21T07:50:04.105Z,17.00
2023-05-21T07:52:32.242Z,16.80
2023-05-21T07:54:59.560Z,16.70
2023-05-21T07:57:28.419Z,16.80
2023-05-21T07:59:56.833Z,16.80
2023-05-21T08:02:24.639Z,16.80
2023-05-21T08:04:52.809Z,16.70
2023-05-21T08:07:21.638Z,16.70
2023-05-21T08:09:48.992Z,17.10
2023-05-21T08:12:16.421Z,16.90
2023-05-21T08:14:43.786Z,17.10
2023-05-21T08:17:11.728Z,17.30
2023-05-21T08:19:39.457Z,17.30
2023-05-21T08:22:06.884Z,17.30
2023-05-21T08:24:34.246Z,17.30
2023-05-21T08:27:01.546Z,17.30
2023-05-21T08:29:28.861Z,17.70
2023-05-21T08:31:56.740Z,17.50
2023-05-21T08:34:24.826Z,17.70
2023-05-21T08:36:53.991Z,17.90
2023-05-21T08:39:21.870Z,17.60
2023-05-21T08:41:55.308Z,17.40
2023-05-21T08:44:25.745Z,17.60
2023-05-21T08:46:55.192Z,17.40
2023-05-21T08:49:27.441Z,17.70
2023-05-21T08:51:56.440Z,17.60
2023-05-21T08:54:24.134Z,17.50
2023-05-21T08:56:53.105Z,17.30
2023-05-21T08:59:22.106Z,17.60
2023-05-21T09:01:50.383Z,17.40
2023-05-21T09:04:21.217Z,17.40
2023-05-21T09:06:49.273Z,17.70
2023-05-21T09:09:32.305Z,17.80
2023-05-21T09:11:59.552Z,17.70
2023-05-21T09:14:28.654Z,17.60
2023-05-21T09:16:55.804Z,17.50
2023-05-21T09:19:23.289Z,17.70
2023-05-21T09:21:53.996Z,17.60
2023-05-21T09:24:24.703Z,17.60
2023-05-21T09:26:52.730Z,17.70
2023-05-21T09:29:19.937Z,17.70
2023-05-21T09:31:47.835Z,17.70
2023-05-21T09:34:15.579Z,18.10
2023-05-21T09:36:44.207Z,18.00
2023-05-21T09:39:16.604Z,18.30
2023-05-21T09:41:44.078Z,18.60
2023-05-21T09:44:11.513Z,18.60
2023-05-21T09:46:41.000Z,18.60
2023-05-21T09:49:26.524Z,18.80
2023-05-21T09:52:00.243Z,18.80
2023-05-21T09:54:33.627Z,19.20
2023-05-21T09:57:04.814Z,19.40
2023-05-21T09:59:41.649Z,19.70
2023-05-21T10:02:19.008Z,19.80
2023-05-21T10:04:49.848Z,19.60
2023-05-21T10:07:26.121Z,20.00
2023-05-21T10:09:58.453Z,20.10
2023-05-21T10:12:27.891Z,20.10
2023-05-21T10:15:03.155Z,20.30
2023-05-21T10:17:31.203Z,20.30
2023-05-21T10:20:01.064Z,20.40
2023-05-21T10:22:29.294Z,20.70
2023-05-21T10:24:59.018Z,20.80
2023-05-21T10:27:30.558Z,20.90
2023-05-21T10:30:00.375Z,20.90
2023-05-21T10:32:28.425Z,21.10
2023-05-21T10:34:55.978Z,21.20
2023-05-21T10:37:27.861Z,21.30
2023-05-21T10:39:56.538Z,21.30
2023-05-21T10:42:30.149Z,21.40
2023-05-21T10:45:21.969Z,21.40
2023-05-21T10:48:40.113Z,21.50
2023-05-21T10:51:16.715Z,21.40
2023-05-21T10:54:02.576Z,21.70
2023-05-21T10:56:38.959Z,21.80
2023-05-21T10:59:34.042Z,21.80
2023-05-21T11:02:02.381Z,21.90
2023-05-21T11:04:30.103Z,21.90
2023-05-21T11:06:59.156Z,21.90
2023-05-21T11:09:27.654Z,21.90
2023-05-21T11:11:59.419Z,21.60
2023-05-21T11:14:39.643Z,21.70
2023-05-21T11:17:12.043Z,21.90
2023-05-21T11:19:43.751Z,22.20
2023-05-21T11:22:24.336Z,22.50
2023-05-21T11:24:53.392Z,22.70
2023-05-21T11:27:44.017Z,22.90
2023-05-21T11:30:17.230Z,23.10
2023-05-21T11:33:14.359Z,23.30
2023-05-21T11:35:50.720Z,23.40
2023-05-21T11:38:18.669Z,23.60
2023-05-21T11:40:55.656Z,23.80
2023-05-21T11:43:23.184Z,23.90
2023-05-21T11:45:53.340Z,24.20
2023-05-21T11:48:27.258Z,24.30
2023-05-21T11:50:55.266Z,24.50
2023-05-21T11:53:22.746Z,24.60
2023-05-21T11:55:50.923Z,24.80
2023-05-21T11:58:19.857Z,25.10
2023-05-21T12:00:51.357Z,25.30
2023-05-21T12:03:20.054Z,25.60
2023-05-21T12:05:48.245Z,25.80
2023-05-21T12:08:27.456Z,26.10
2023-05-21T12:11:02.072Z,26.30
2023-05-21T12:13:29.663Z,26.30
2023-05-21T12:15:57.180Z,26.30
2023-05-21T12:18:25.548Z,26.00
2023-05-21T12:20:53.114Z,25.90
2023-05-21T12:23:31.781Z,25.80
2023-05-21T12:25:59.708Z,25.70
2023-05-21T12:28:27.571Z,25.50
2023-05-21T12:30:57.694Z,25.40
2023-05-21T12:33:26.389Z,25.30
2023-05-21T12:35:55.418Z,25.20
2023-05-21T12:38:22.782Z,25.10
2023-05-21T12:40:54.062Z,25.00
2023-05-21T12:43:21.239Z,25.00
2023-05-21T12:45:48.835Z,25.00
2023-05-21T12:48:16.844Z,24.90
2023-05-21T12:50:44.615Z,24.90
2023-05-21T12:53:12.531Z,25.00
2023-05-21T12:55:40.859Z,25.00
2023-05-21T12:58:09.259Z,25.00
2023-05-21T13:00:37.792Z,25.10
2023-05-21T13:03:06.918Z,25.30
2023-05-21T13:05:35.033Z,25.50
2023-05-21T13:08:02.466Z,25.80
2023-05-21T13:10:30.127Z,26.00
2023-05-21T13:12:57.273Z,26.30
2023-05-21T13:15:24.992Z,26.50
2023-05-21T13:17:54.346Z,26.70
2023-05-21T13:20:26.709Z,26.90
2023-05-21T13:22:54.357Z,27.10
2023-05-21T13:25:25.116Z,27.30
2023-05-21T13:27:54.114Z,27.50
2023-05-21T13:30:24.418Z,27.70
2023-05-21T13:32:55.137Z,27.90
2023-05-21T13:35:22.833Z,28.20
2023-05-21T13:37:50.162Z,28.50
2023-05-21T13:40:18.275Z,28.70
2023-05-21T13:42:48.205Z,28.70
2023-05-21T13:45:17.733Z,28.80
2023-05-21T13:47:46.032Z,28.80
2023-05-21T13:50:14.093Z,28.90
2023-05-21T13:52:41.890Z,29.00
2023-05-21T13:55:10.812Z,29.10
2023-05-21T13:57:40.824Z,29.10
2023-05-21T14:00:14.502Z,29.10
2023-05-21T14:02:43.635Z,29.10
2023-05-21T14:05:12.274Z,29.10
2023-05-21T14:07:40.281Z,28.80
2023-05-21T14:10:08.512Z,28.80
2023-05-21T14:12:36.129Z,28.90
2023-05-21T14:15:03.353Z,29.00
2023-05-21T14:17:33.811Z,29.20
2023-05-21T14:20:01.079Z,29.30
2023-05-21T14:22:28.413Z,29.20
2023-05-21T14:24:56.450Z,29.20
2023-05-21T14:27:23.503Z,29.30
2023-05-21T14:29:51.240Z,29.40
2023-05-21T14:32:19.561Z,29.50
2023-05-21T14:34:46.897Z,29.80
2023-05-21T14:37:14.334Z,30.20
2023-05-21T14:39:41.352Z,30.40
2023-05-21T14:42:08.558Z,30.40
2023-05-21T14:44:35.855Z,30.50
2023-05-21T14:47:03.523Z,30.60
2023-05-21T14:49:33.927Z,30.90
2023-05-21T14:52:01.269Z,31.10
2023-05-21T14:54:28.901Z,31.20
2023-05-21T14:56:56.782Z,30.90
2023-05-21T14:59:23.908Z,30.70
2023-05-21T15:01:51.210Z,30.40
2023-05-21T15:04:18.535Z,30.60
2023-05-21T15:06:45.663Z,30.90
2023-05-21T15:09:13.027Z,31.40
2023-05-21T15:11:40.728Z,31.80
2023-05-21T15:14:07.809Z,32.10
2023-05-21T15:16:34.976Z,32.20
2023-05-21T15:19:02.595Z,31.90
2023-05-21T15:21:29.777Z,31.40
2023-05-21T15:23:57.583Z,30.80
2023-05-21T15:26:26.540Z,30.30
2023-05-21T15:28:54.144Z,29.80
2023-05-21T15:31:21.743Z,29.50
2023-05-21T15:33:49.565Z,29.30
2023-05-21T15:36:16.906Z,29.20
2023-05-21T15:38:44.355Z,29.20
2023-05-21T15:41:11.825Z,29.50
2023-05-21T15:43:39.259Z,29.70
2023-05-21T15:46:06.706Z,29.70
2023-05-21T15:48:34.240Z,29.90
2023-05-21T15:51:01.866Z,30.20
2023-05-21T15:53:28.956Z,30.40
2023-05-21T15:55:56.986Z,30.60
2023-05-21T15:58:24.273Z,30.60
2023-05-21T16:00:51.718Z,30.70
2023-05-21T16:03:20.034Z,30.80
2023-05-21T16:05:47.925Z,31.00
2023-05-21T16:08:17.971Z,31.40
2023-05-21T16:10:46.200Z,31.60
2023-05-21T16:13:13.567Z,31.90
2023-05-21T16:15:40.934Z,32.00
2023-05-21T16:18:09.979Z,31.90
2023-05-21T16:20:37.664Z,31.70
2023-05-21T16:23:06.594Z,31.40
2023-05-21T16:25:36.055Z,31.10
2023-05-21T16:28:03.999Z,30.70
2023-05-21T16:30:31.673Z,30.40
2023-05-21T16:32:59.026Z,30.20
2023-05-21T16:35:26.812Z,30.00
2023-05-21T16:37:54.083Z,29.80
2023-05-21T16:40:21.440Z,29.70
2023-05-21T16:42:49.335Z,29.60
2023-05-21T16:45:21.483Z,29.60
2023-05-21T16:47:52.855Z,29.60
2023-05-21T16:50:20.109Z,29.70
2023-05-21T16:52:47.717Z,29.90
2023-05-21T16:55:15.499Z,30.00
2023-05-21T16:57:42.972Z,30.10
2023-05-21T17:00:10.767Z,30.00
2023-05-21T17:02:38.892Z,29.80
2023-05-21T17:05:07.019Z,29.70
2023-05-21T17:07:34.365Z,29.60
2023-05-21T17:10:02.340Z,29.60
2023-05-21T17:12:29.719Z,29.50
2023-05-21T17:14:57.070Z,29.30
2023-05-21T17:17:24.721Z,29.00
2023-05-21T17:19:52.411Z,28.70
2023-05-21T17:22:20.169Z,28.40
2023-05-21T17:24:48.074Z,28.10
2023-05-21T17:27:16.430Z,27.80
2023-05-21T17:29:44.179Z,27.70
2023-05-21T17:34:53.979Z,27.50
2023-05-21T17:37:21.351Z,27.50
2023-05-21T17:39:48.490Z,27.50
2023-05-21T17:42:15.752Z,27.60
2023-05-21T17:44:43.105Z,27.50
2023-05-21T17:47:10.370Z,27.50
2023-05-21T17:49:37.487Z,27.40
2023-05-21T17:52:05.164Z,27.30
2023-05-21T17:54:32.384Z,27.10
2023-05-21T17:56:59.433Z,27.00
2023-05-21T17:59:26.722Z,26.80
2023-05-21T18:01:53.795Z,26.60
2023-05-21T18:04:21.264Z,26.40
2023-05-21T18:06:48.383Z,26.20
2023-05-21T18:09:15.837Z,25.90
2023-05-21T18:11:44.694Z,25.60
2023-05-21T18:14:11.953Z,25.40
2023-05-21T18:16:39.520Z,25.30
2023-05-21T18:19:07.398Z,25.10
2023-05-21T18:21:35.516Z,24.90
2023-05-21T18:24:03.534Z,24.70
2023-05-21T18:26:31.036Z,24.60
2023-05-21T18:28:58.823Z,24.40
2023-05-21T18:31:29.397Z,24.20
2023-05-21T18:33:56.736Z,24.00
2023-05-21T18:36:24.096Z,23.80
2023-05-21T18:38:52.681Z,23.60
2023-05-21T18:41:22.542Z,23.40
2023-05-21T18:43:49.650Z,23.10
2023-05-21T18:46:16.785Z,22.70
2023-05-21T18:48:44.103Z,22.40
2023-05-21T18:51:11.570Z,22.10
2023-05-21T18:53:39.386Z,22.00
2023-05-21T18:56:10.679Z,21.80
2023-05-21T18:58:38.641Z,21.70
2023-05-21T19:01:07.089Z,21.50
2023-05-21T19:03:34.578Z,21.40
2023-05-21T19:06:01.733Z,21.30
2023-05-21T19:08:28.896Z,21.20
2023-05-21T19:10:56.521Z,20.90
2023-05-21T19:13:24.024Z,20.90
2023-05-21T19:15:51.516Z,20.80
2023-05-21T19:18:18.922Z,20.60
2023-05-21T19:20:46.155Z,20.50
2023-05-21T19:23:13.254Z,20.20
2023-05-21T19:25:40.798Z,20.30
2023-05-21T19:28:08.161Z,20.20
2023-05-21T19:30:36.730Z,20.10
2023-05-21T19:33:04.217Z,20.10
2023-05-21T19:35:31.956Z,20.10
2023-05-21T19:38:00.707Z,19.80
2023-05-21T19:40:30.996Z,20.00
2023-05-21T19:42:58.721Z,19.80
2023-05-21T19:45:26.318Z,19.70
2023-05-21T19:47:53.829Z,19.70
2023-05-21T19:50:21.286Z,19.80
2023-05-21T19:52:48.889Z,19.60
2023-05-21T19:55:20.533Z,19.60
2023-05-21T19:57:47.883Z,19.60
2023-05-21T20:00:15.408Z,19.70
2023-05-21T20:02:43.516Z,19.30
2023-05-21T20:05:11.307Z,19.50
2023-05-21T20:07:38.813Z,19.60
2023-05-21T20:10:07.608Z,19.40
2023-05-21T20:12:35.152Z,19.10
2023-05-21T20:17:44.899Z,19.20
2023-05-21T20:20:12.779Z,19.00
2023-05-21T20:22:40.066Z,19.10
2023-05-21T20:25:08.946Z,19.10
2023-05-21T20:27:38.761Z,19.10
2023-05-21T20:30:07.768Z,19.10
2023-05-21T20:32:38.098Z,19.00
2023-05-21T20:35:09.191Z,18.90
2023-05-21T20:37:37.152Z,18.80
2023-05-21T20:40:06.692Z,18.70
2023-05-21T20:42:36.719Z,18.60
2023-05-21T20:45:04.755Z,18.80
2023-05-21T20:47:32.224Z,18.80
2023-05-21T20:50:00.316Z,18.40
2023-05-21T20:52:27.867Z,18.70
2023-05-21T20:54:55.216Z,18.70
2023-05-21T20:57:26.283Z,18.90
2023-05-21T20:59:54.113Z,18.40
2023-05-21T21:02:23.082Z,18.60
2023-05-21T21:04:51.176Z,18.50
2023-05-21T21:07:18.952Z,18.80
2023-05-21T21:09:48.646Z,18.90
2023-05-21T21:12:25.864Z,18.70
2023-05-21T21:14:54.445Z,18.30
2023-05-21T21:17:21.589Z,18.30
2023-05-21T21:19:49.170Z,18.70
2023-05-21T21:22:16.865Z,18.30
2023-05-21T21:24:44.700Z,18.50
2023-05-21T21:27:12.217Z,18.20
2023-05-21T21:29:40.175Z,18.50
2023-05-21T21:32:07.832Z,18.40
2023-05-21T21:34:35.391Z,18.30
2023-05-21T21:37:02.970Z,18.10
2023-05-21T21:39:30.629Z,18.20
2023-05-21T21:41:58.110Z,18.10
2023-05-21T21:44:26.236Z,18.30
2023-05-21T21:46:53.694Z,18.00
2023-05-21T21:49:21.161Z,18.10
2023-05-21T21:51:48.658Z,18.10
2023-05-21T21:54:15.881Z,18.00
2023-05-21T21:56:43.515Z,18.00
2023-05-21T21:59:10.804Z,17.80
2023-05-21T22:01:38.060Z,18.00
2023-05-21T22:04:08.099Z,18.00
2023-05-21T22:06:35.544Z,18.00
2023-05-21T22:09:03.345Z,18.00
2023-05-21T22:11:31.217Z,17.90
2023-05-21T22:14:00.742Z,18.10
2023-05-21T22:16:28.507Z,18.00
2023-05-21T22:18:58.192Z,17.90
2023-05-21T22:21:29.435Z,18.00
2023-05-21T22:23:56.934Z,17.90
2023-05-21T22:26:24.768Z,17.80
2023-05-21T22:28:53.050Z,17.90
2023-05-21T22:31:36.257Z,17.80
2023-05-21T22:34:03.949Z,17.60
2023-05-21T22:36:31.518Z,17.90
2023-05-21T22:38:59.022Z,17.70
2023-05-21T22:41:26.933Z,17.80
2023-05-21T22:43:54.292Z,17.50
2023-05-21T22:46:24.632Z,17.50
2023-05-21T22:48:52.059Z,17.60
2023-05-21T22:51:19.108Z,17.50
2023-05-21T22:53:46.554Z,17.40
2023-05-21T22:56:13.956Z,17.50
2023-05-21T22:58:41.288Z,17.40
2023-05-21T23:01:08.579Z,17.50
2023-05-21T23:03:35.931Z,17.30
2023-05-21T23:06:03.177Z,17.30
2023-05-21T23:08:30.389Z,17.50
2023-05-21T23:10:57.705Z,17.30
2023-05-21T23:13:24.969Z,17.10
2023-05-21T23:15:52.129Z,17.40
2023-05-21T23:18:19.410Z,17.20
2023-05-21T23:20:46.846Z,17.20
2023-05-21T23:23:14.321Z,17.20
2023-05-21T23:25:41.469Z,16.80
2023-05-21T23:28:08.773Z,17.10
2023-05-21T23:30:36.269Z,16.70
2023-05-21T23:33:03.884Z,16.80
2023-05-21T23:35:31.243Z,16.70
2023-05-21T23:38:08.882Z,17.00
2023-05-21T23:40:36.553Z,16.70
2023-05-21T23:43:04.882Z,16.60
2023-05-21T23:45:32.311Z,16.60
2023-05-21T23:47:59.385Z,16.80
2023-05-21T23:50:26.756Z,16.90
2023-05-21T23:52:53.830Z,17.10
2023-05-21T23:55:21.073Z,16.80
2023-05-21T23:57:48.168Z,17.00
